KJER

Jerome County Airport

Jerome, Idaho, USA
METAR KJER 212253Z AUTO 20005KT 10SM CLR 25/06 A3006 RMK AO2 SLP151 T02500061
Observed Flight Rules
Aug-21 @ 22:53 UTC (52 minutes ago) Visual Flight Rules
Wind Visibility Clouds
200° at 5 knots 10 miles
  • Clear skies
Temperatures Readings
Current 25°C / 77°F
Dewpoint 6°C / 43°F
Humidity 30%
Altimeter 30.06" Hg
Pressure 1015.1 hPa
Elevation 1222
METAR KJER 212253Z AUTO 20005KT 10SM CLR 25/06 A3006 RMK AO2 SLP151 T02500061
Observed Flight Rules
Aug-21 @ 22:53 UTC
(52 minutes ago)
VFR
Wind Visibility
200° at 5 knots 10 miles
Clouds
  • Clear skies
Temperature Dewpoint
25°C / 77°F 6°C / 43°F
Humidity Altimeter Pressure
30% 30.06" Hg 1015.1 hPa